createdAt,value
2023-08-07T00:01:05.914Z,82.71
2023-08-07T00:03:36.903Z,83.90
2023-08-07T00:06:06.431Z,84.98
2023-08-07T00:08:35.411Z,84.07
2023-08-07T00:11:11.330Z,84.17
2023-08-07T00:13:40.262Z,84.38
2023-08-07T00:16:11.627Z,84.02
2023-08-07T00:18:40.836Z,84.53
2023-08-07T00:21:10.119Z,84.31
2023-08-07T00:23:39.048Z,85.14
2023-08-07T00:26:08.364Z,84.81
2023-08-07T00:28:37.437Z,84.26
2023-08-07T00:31:06.419Z,86.01
2023-08-07T00:33:35.318Z,84.78
2023-08-07T00:36:04.854Z,83.66
2023-08-07T00:38:34.256Z,82.74
2023-08-07T00:41:03.296Z,85.98
2023-08-07T00:43:32.506Z,86.15
2023-08-07T00:46:02.262Z,86.18
2023-08-07T00:48:32.905Z,83.66
2023-08-07T00:51:02.565Z,85.47
2023-08-07T00:53:31.820Z,85.80
2023-08-07T00:56:01.566Z,84.58
2023-08-07T00:58:31.142Z,85.47
2023-08-07T01:01:00.414Z,83.84
2023-08-07T01:03:29.528Z,80.63
2023-08-07T01:05:59.014Z,78.36
2023-08-07T01:08:28.834Z,75.24
2023-08-07T01:11:29.681Z,73.32
2023-08-07T01:14:20.340Z,73.08
2023-08-07T01:16:54.705Z,71.58
2023-08-07T01:19:29.292Z,71.14
2023-08-07T01:22:27.614Z,72.67
2023-08-07T01:24:56.704Z,72.47
2023-08-07T01:27:36.388Z,72.26
2023-08-07T01:30:16.035Z,72.80
2023-08-07T01:33:10.401Z,72.78
2023-08-07T01:35:47.564Z,71.89
2023-08-07T01:38:17.671Z,72.31
2023-08-07T01:40:49.049Z,72.62
2023-08-07T01:43:20.092Z,73.20
2023-08-07T01:45:49.095Z,71.77
2023-08-07T01:48:18.143Z,71.10
2023-08-07T01:50:47.776Z,72.59
2023-08-07T01:53:16.796Z,71.45
2023-08-07T01:55:45.737Z,72.15
2023-08-07T01:58:14.656Z,71.39
2023-08-07T02:00:43.901Z,71.60
2023-08-07T02:03:13.030Z,73.97
2023-08-07T02:05:42.492Z,74.13
2023-08-07T02:08:11.834Z,73.45
2023-08-07T02:10:41.069Z,77.43
2023-08-07T02:13:11.800Z,79.28
2023-08-07T02:15:41.347Z,77.98
2023-08-07T02:18:10.604Z,75.21
2023-08-07T02:20:40.559Z,74.14
2023-08-07T02:23:09.504Z,76.46
2023-08-07T02:25:38.437Z,74.12
2023-08-07T02:28:07.319Z,73.02
2023-08-07T02:30:36.527Z,72.65
2023-08-07T02:33:05.708Z,76.87
2023-08-07T02:35:35.017Z,75.34
2023-08-07T02:38:04.010Z,75.18
2023-08-07T02:40:33.005Z,75.98
2023-08-07T02:43:02.235Z,77.26
2023-08-07T02:45:31.489Z,76.37
2023-08-07T02:48:01.825Z,77.56
2023-08-07T02:50:33.816Z,76.00
2023-08-07T02:53:03.414Z,76.73
2023-08-07T02:55:32.660Z,77.80
2023-08-07T02:58:01.876Z,76.15
2023-08-07T03:00:30.969Z,80.75
2023-08-07T03:03:00.173Z,80.12
2023-08-07T03:05:29.257Z,78.70
2023-08-07T03:07:58.411Z,77.19
2023-08-07T03:10:28.772Z,77.99
2023-08-07T03:12:57.993Z,74.96
2023-08-07T03:15:27.143Z,76.83
2023-08-07T03:17:56.419Z,75.92
2023-08-07T03:20:25.389Z,76.68
2023-08-07T03:22:55.320Z,77.41
2023-08-07T03:25:24.395Z,75.33
2023-08-07T03:27:53.455Z,77.28
2023-08-07T03:30:22.375Z,76.38
2023-08-07T03:32:51.573Z,75.92
2023-08-07T03:35:20.726Z,75.17
2023-08-07T03:37:50.152Z,73.45
2023-08-07T03:40:19.363Z,74.92
2023-08-07T03:42:48.658Z,73.45
2023-08-07T03:45:17.846Z,73.33
2023-08-07T03:47:47.051Z,71.92
2023-08-07T03:50:16.090Z,72.55
2023-08-07T03:52:45.353Z,72.03
2023-08-07T03:55:14.695Z,73.06
2023-08-07T03:57:43.844Z,71.35
2023-08-07T04:00:13.230Z,71.36
2023-08-07T04:02:42.632Z,70.95
2023-08-07T04:05:12.060Z,69.17
2023-08-07T04:07:41.366Z,69.71
2023-08-07T04:10:10.740Z,69.84
2023-08-07T04:12:39.986Z,69.06
2023-08-07T04:15:10.211Z,68.47
2023-08-07T04:17:39.510Z,69.72
2023-08-07T04:20:09.612Z,70.22
2023-08-07T04:22:38.856Z,71.38
2023-08-07T04:25:08.397Z,70.52
2023-08-07T04:27:37.695Z,70.49
2023-08-07T04:30:07.624Z,70.93
2023-08-07T04:32:36.851Z,71.43
2023-08-07T04:35:06.596Z,71.92
2023-08-07T04:37:35.885Z,74.03
2023-08-07T04:40:06.089Z,71.92
2023-08-07T04:42:35.389Z,71.42
2023-08-07T04:45:05.122Z,71.47
2023-08-07T04:47:34.139Z,72.05
2023-08-07T04:50:03.330Z,74.84
2023-08-07T04:52:33.891Z,71.28
2023-08-07T04:55:03.381Z,71.97
2023-08-07T04:57:32.422Z,71.25
2023-08-07T05:00:01.700Z,70.84
2023-08-07T05:02:30.870Z,71.24
2023-08-07T05:05:00.218Z,70.07
2023-08-07T05:07:29.242Z,70.30
2023-08-07T05:10:00.814Z,70.07
2023-08-07T05:12:30.688Z,70.92
2023-08-07T05:15:00.443Z,71.74
2023-08-07T05:17:29.772Z,70.23
2023-08-07T05:19:59.166Z,69.00
2023-08-07T05:22:28.405Z,69.82
2023-08-07T05:24:57.313Z,69.55
2023-08-07T05:27:26.563Z,69.40
2023-08-07T05:29:55.643Z,71.26
2023-08-07T05:32:24.574Z,69.57
2023-08-07T05:34:54.360Z,69.53
2023-08-07T05:37:23.673Z,68.72
2023-08-07T05:39:52.765Z,68.47
2023-08-07T05:42:21.692Z,68.97
2023-08-07T05:44:50.991Z,69.10
2023-08-07T05:47:20.144Z,69.05
2023-08-07T05:49:48.997Z,69.32
2023-08-07T05:52:19.183Z,67.84
2023-08-07T05:54:49.048Z,68.46
2023-08-07T05:57:19.228Z,68.58
2023-08-07T05:59:48.166Z,68.40
2023-08-07T06:02:17.421Z,68.58
2023-08-07T06:04:46.496Z,69.25
2023-08-07T06:07:15.425Z,70.24
2023-08-07T06:09:45.082Z,70.08
2023-08-07T06:12:14.185Z,70.90
2023-08-07T06:14:44.433Z,72.52
2023-08-07T06:17:13.727Z,70.56
2023-08-07T06:19:42.945Z,71.01
2023-08-07T06:22:11.911Z,70.14
2023-08-07T06:24:41.181Z,68.84
2023-08-07T06:27:10.083Z,70.31
2023-08-07T06:29:39.310Z,70.37
2023-08-07T06:32:08.818Z,69.98
2023-08-07T06:34:39.197Z,69.19
2023-08-07T06:37:08.510Z,69.44
2023-08-07T06:39:37.385Z,69.37
2023-08-07T06:42:06.657Z,69.14
2023-08-07T06:44:35.864Z,69.06
2023-08-07T06:47:04.955Z,67.78
2023-08-07T06:49:34.419Z,67.18
2023-08-07T06:52:03.813Z,67.56
2023-08-07T06:54:32.758Z,66.44
2023-08-07T06:57:02.183Z,65.79
2023-08-07T06:59:31.582Z,65.07
2023-08-07T07:02:00.735Z,64.91
2023-08-07T07:04:30.086Z,65.18
2023-08-07T07:06:59.018Z,65.15
2023-08-07T07:09:29.963Z,65.00
2023-08-07T07:11:59.235Z,65.34
2023-08-07T07:14:28.256Z,65.79
2023-08-07T07:16:57.181Z,65.62
2023-08-07T07:19:26.394Z,65.28
2023-08-07T07:21:55.683Z,64.66
2023-08-07T07:24:24.774Z,64.43
2023-08-07T07:26:54.099Z,65.24
2023-08-07T07:29:23.282Z,64.23
2023-08-07T07:31:52.374Z,64.67
2023-08-07T07:34:21.429Z,64.63
2023-08-07T07:36:50.573Z,64.29
2023-08-07T07:39:19.891Z,64.28
2023-08-07T07:41:49.326Z,65.35
2023-08-07T07:44:18.494Z,65.66
2023-08-07T07:46:47.435Z,66.18
2023-08-07T07:49:16.700Z,65.17
2023-08-07T07:51:47.758Z,64.51
2023-08-07T07:54:16.905Z,64.51
2023-08-07T07:56:46.142Z,62.08
2023-08-07T07:59:15.151Z,62.04
2023-08-07T08:01:44.243Z,61.15
2023-08-07T08:04:13.486Z,60.76
2023-08-07T08:06:42.735Z,60.49
2023-08-07T08:09:12.136Z,59.45
2023-08-07T08:11:41.319Z,60.14
2023-08-07T08:14:10.976Z,59.53
2023-08-07T08:16:40.482Z,59.00
2023-08-07T08:19:11.063Z,58.41
2023-08-07T08:21:41.773Z,57.40
2023-08-07T08:24:10.822Z,57.75
2023-08-07T08:26:40.005Z,56.79
2023-08-07T08:29:09.357Z,56.78
2023-08-07T08:31:38.557Z,57.72
2023-08-07T08:34:07.569Z,57.20
2023-08-07T08:36:37.418Z,56.71
2023-08-07T08:39:06.530Z,56.97
2023-08-07T08:41:35.777Z,57.03
2023-08-07T08:44:06.804Z,58.00
2023-08-07T08:46:37.180Z,57.80
2023-08-07T08:49:09.100Z,56.82
2023-08-07T08:51:38.904Z,56.30
2023-08-07T08:54:09.113Z,55.68
2023-08-07T08:56:39.155Z,54.76
2023-08-07T08:59:08.427Z,53.55
2023-08-07T09:01:38.607Z,54.37
2023-08-07T09:04:08.212Z,54.37
2023-08-07T09:06:37.674Z,54.42
2023-08-07T09:09:08.429Z,53.80
2023-08-07T09:11:38.038Z,54.30
2023-08-07T09:14:07.537Z,53.33
2023-08-07T09:16:37.380Z,54.16
2023-08-07T09:19:07.453Z,55.64
2023-08-07T09:21:37.037Z,55.80
2023-08-07T09:24:06.331Z,55.47
2023-08-07T09:26:35.559Z,54.09
2023-08-07T09:29:05.003Z,52.30
2023-08-07T09:31:34.143Z,52.24
2023-08-07T09:34:06.318Z,52.41
2023-08-07T09:36:35.878Z,52.27
2023-08-07T09:39:05.601Z,50.16
2023-08-07T09:41:36.385Z,53.10
2023-08-07T09:44:09.879Z,52.44
2023-08-07T09:46:46.279Z,52.22
2023-08-07T09:49:17.196Z,51.88
2023-08-07T09:51:49.092Z,51.24
2023-08-07T09:54:18.017Z,49.73
2023-08-07T09:56:49.017Z,50.69
2023-08-07T09:59:18.212Z,51.70
2023-08-07T10:01:47.673Z,51.80
2023-08-07T10:04:17.231Z,51.22
2023-08-07T10:06:47.989Z,52.42
2023-08-07T10:09:17.536Z,54.23
2023-08-07T10:11:47.299Z,55.74
2023-08-07T10:14:16.882Z,55.50
2023-08-07T10:16:46.980Z,57.19
2023-08-07T10:19:16.120Z,57.18
2023-08-07T10:21:46.473Z,57.09
2023-08-07T10:24:17.093Z,57.02
2023-08-07T10:26:47.767Z,57.88
2023-08-07T10:29:20.324Z,57.11
2023-08-07T10:31:51.422Z,56.87
2023-08-07T10:34:20.728Z,57.17
2023-08-07T10:36:50.966Z,56.75
2023-08-07T10:39:20.409Z,59.50
2023-08-07T10:41:56.187Z,57.56
2023-08-07T10:44:26.945Z,57.63
2023-08-07T10:46:58.361Z,57.62
2023-08-07T10:49:34.062Z,57.69
2023-08-07T10:52:26.327Z,58.45
2023-08-07T10:54:55.735Z,58.90
2023-08-07T10:57:32.971Z,58.88
2023-08-07T11:00:07.480Z,57.88
2023-08-07T11:02:40.898Z,55.47
2023-08-07T11:05:10.138Z,53.77
2023-08-07T11:07:41.799Z,53.22
2023-08-07T11:10:15.870Z,52.58
2023-08-07T11:12:45.883Z,50.37
2023-08-07T11:15:15.791Z,51.45
2023-08-07T11:17:44.746Z,52.33
2023-08-07T11:20:13.943Z,52.19
2023-08-07T11:22:44.173Z,52.37
2023-08-07T11:25:14.777Z,52.68
2023-08-07T11:27:44.858Z,53.42
2023-08-07T11:30:14.071Z,53.66
2023-08-07T11:32:43.701Z,54.19
2023-08-07T11:35:12.987Z,53.94
2023-08-07T11:37:48.940Z,55.04
2023-08-07T11:40:18.015Z,55.57
2023-08-07T11:42:47.133Z,55.86
2023-08-07T11:45:18.638Z,53.21
2023-08-07T11:47:48.107Z,51.70
2023-08-07T11:50:17.617Z,49.02
2023-08-07T11:52:47.124Z,48.46
2023-08-07T11:55:16.513Z,48.88
2023-08-07T11:57:48.934Z,49.13
2023-08-07T12:00:18.116Z,48.96
2023-08-07T12:02:47.759Z,49.15
2023-08-07T12:05:16.731Z,48.64
2023-08-07T12:07:46.194Z,47.00
2023-08-07T12:10:15.620Z,48.61
2023-08-07T12:12:46.184Z,46.93
2023-08-07T12:15:21.053Z,51.28
2023-08-07T12:17:50.110Z,51.05
2023-08-07T12:20:19.462Z,50.63
2023-08-07T12:22:49.823Z,50.98
2023-08-07T12:25:19.048Z,50.78
2023-08-07T12:27:49.915Z,50.90
2023-08-07T12:30:18.895Z,51.46
2023-08-07T12:32:48.135Z,52.04
2023-08-07T12:35:19.786Z,50.47
2023-08-07T12:37:48.990Z,49.84
2023-08-07T12:42:54.294Z,47.39
2023-08-07T12:47:56.422Z,49.17
2023-08-07T12:50:30.568Z,49.63
2023-08-07T12:53:00.038Z,50.47
2023-08-07T12:55:29.781Z,51.44
2023-08-07T12:57:59.656Z,51.50
2023-08-07T13:00:28.629Z,52.26
2023-08-07T13:02:58.053Z,50.74
2023-08-07T13:05:29.178Z,48.54
2023-08-07T13:07:59.833Z,47.75
2023-08-07T13:10:32.743Z,50.25
2023-08-07T13:13:02.861Z,51.06
2023-08-07T13:15:32.172Z,52.35
2023-08-07T13:18:01.963Z,50.54
2023-08-07T13:20:35.234Z,54.13
2023-08-07T13:23:07.649Z,54.79
2023-08-07T13:25:37.843Z,52.03
2023-08-07T13:28:08.054Z,50.26
2023-08-07T13:30:37.913Z,50.37
2023-08-07T13:33:07.297Z,48.59
2023-08-07T13:35:36.649Z,50.83
2023-08-07T13:38:09.115Z,50.81
2023-08-07T13:40:38.475Z,53.12
2023-08-07T13:43:10.613Z,50.78
2023-08-07T13:45:39.963Z,52.63
2023-08-07T13:48:10.854Z,49.55
2023-08-07T13:50:40.530Z,50.67
2023-08-07T13:53:15.287Z,50.44
2023-08-07T13:55:45.590Z,49.92
2023-08-07T13:58:17.884Z,50.49
2023-08-07T14:00:47.030Z,52.97
2023-08-07T14:03:16.455Z,52.91
2023-08-07T14:05:45.520Z,53.18
2023-08-07T14:08:14.946Z,53.56
2023-08-07T14:10:44.520Z,52.60
2023-08-07T14:13:13.630Z,53.07
2023-08-07T14:15:43.149Z,49.14
2023-08-07T14:18:14.574Z,56.46
2023-08-07T14:21:00.472Z,53.16
2023-08-07T14:23:33.931Z,53.99
2023-08-07T14:26:03.637Z,52.62
2023-08-07T14:28:32.970Z,57.61
2023-08-07T14:31:02.423Z,56.05
2023-08-07T14:33:31.767Z,57.79
2023-08-07T14:36:01.791Z,58.89
2023-08-07T14:38:31.002Z,57.42
2023-08-07T14:41:03.834Z,56.74
2023-08-07T14:43:33.322Z,50.42
2023-08-07T14:46:02.580Z,56.37
2023-08-07T14:48:31.943Z,54.36
2023-08-07T14:51:00.974Z,58.96
2023-08-07T14:53:30.412Z,55.56
2023-08-07T14:55:59.506Z,55.54
2023-08-07T14:58:28.575Z,55.11
2023-08-07T15:00:57.919Z,56.35
2023-08-07T15:03:27.297Z,55.64
2023-08-07T15:05:58.312Z,57.27
2023-08-07T15:08:27.346Z,55.16
2023-08-07T15:10:56.621Z,57.66
2023-08-07T15:13:26.420Z,57.56
2023-08-07T15:15:56.001Z,55.76
2023-08-07T15:18:25.454Z,57.35
2023-08-07T15:20:54.405Z,56.97
2023-08-07T15:23:23.706Z,51.87
2023-08-07T15:25:52.952Z,53.13
2023-08-07T15:28:22.288Z,55.01
2023-08-07T15:30:52.099Z,55.72
2023-08-07T15:33:23.651Z,57.28
2023-08-07T15:35:57.625Z,58.63
2023-08-07T15:38:29.622Z,58.19
2023-08-07T15:40:58.892Z,56.50
2023-08-07T15:43:28.073Z,56.97
2023-08-07T15:45:57.186Z,57.25
2023-08-07T15:48:26.272Z,53.64
2023-08-07T15:50:55.634Z,57.02
2023-08-07T15:53:24.682Z,56.95
2023-08-07T15:55:53.878Z,54.88
2023-08-07T15:58:24.009Z,58.50
2023-08-07T16:00:53.176Z,54.93
2023-08-07T16:03:23.444Z,57.09
2023-08-07T16:05:52.704Z,59.27
2023-08-07T16:08:21.811Z,58.02
2023-08-07T16:10:51.917Z,59.30
2023-08-07T16:13:21.523Z,53.36
2023-08-07T16:15:50.656Z,55.48
2023-08-07T16:18:20.436Z,59.06
2023-08-07T16:20:49.736Z,54.46
2023-08-07T16:23:19.017Z,57.61
2023-08-07T16:25:47.980Z,55.50
2023-08-07T16:28:17.437Z,57.61
2023-08-07T16:30:46.546Z,60.10
2023-08-07T16:33:17.398Z,59.17
2023-08-07T16:35:46.738Z,62.49
2023-08-07T16:38:16.077Z,60.40
2023-08-07T16:40:45.384Z,60.19
2023-08-07T16:43:14.553Z,59.67
2023-08-07T16:45:43.809Z,59.76
2023-08-07T16:48:13.054Z,61.74
2023-08-07T16:50:45.916Z,60.16
2023-08-07T16:53:17.917Z,61.42
2023-08-07T16:55:47.189Z,62.17
2023-08-07T16:58:16.832Z,62.09
2023-08-07T17:00:46.082Z,60.95
2023-08-07T17:03:16.075Z,61.52
2023-08-07T17:05:45.262Z,61.80
2023-08-07T17:08:14.472Z,60.43
2023-08-07T17:10:43.659Z,62.43
2023-08-07T17:13:12.659Z,59.96
2023-08-07T17:15:42.021Z,60.54
2023-08-07T17:18:11.229Z,61.62
2023-08-07T17:20:40.208Z,62.03
2023-08-07T17:23:09.464Z,63.17
2023-08-07T17:25:38.808Z,60.67
2023-08-07T17:28:07.810Z,63.01
2023-08-07T17:30:37.226Z,63.38
2023-08-07T17:33:06.750Z,62.12
2023-08-07T17:35:36.064Z,62.73
2023-08-07T17:38:05.491Z,62.41
2023-08-07T17:40:34.822Z,62.40
2023-08-07T17:43:03.832Z,63.89
2023-08-07T17:45:33.063Z,64.28
2023-08-07T17:48:02.387Z,63.17
2023-08-07T17:50:31.564Z,65.30
2023-08-07T17:53:00.899Z,66.10
2023-08-07T17:55:31.295Z,65.74
2023-08-07T17:58:01.468Z,64.11
2023-08-07T18:00:30.514Z,64.35
2023-08-07T18:02:59.758Z,64.99
2023-08-07T18:05:30.658Z,65.12
2023-08-07T18:07:59.637Z,66.70
2023-08-07T18:10:29.052Z,67.36
2023-08-07T18:12:58.784Z,65.15
2023-08-07T18:15:27.815Z,66.13
2023-08-07T18:17:56.969Z,68.46
2023-08-07T18:20:26.057Z,65.29
2023-08-07T18:22:55.396Z,68.30
2023-08-07T18:25:24.594Z,67.68
2023-08-07T18:27:53.936Z,67.91
2023-08-07T18:30:23.066Z,68.24
2023-08-07T18:32:54.104Z,66.92
2023-08-07T18:35:24.823Z,70.09
2023-08-07T18:37:53.785Z,70.60
2023-08-07T18:40:23.022Z,70.04
2023-08-07T18:42:52.374Z,70.19
2023-08-07T18:45:21.325Z,70.36
2023-08-07T18:47:52.222Z,70.57
2023-08-07T18:50:21.626Z,71.74
2023-08-07T18:52:50.838Z,70.20
2023-08-07T18:55:20.151Z,72.50
2023-08-07T18:57:50.357Z,72.12
2023-08-07T19:00:19.978Z,72.17
2023-08-07T19:02:49.580Z,72.26
2023-08-07T19:05:18.740Z,73.54
2023-08-07T19:07:48.083Z,75.13
2023-08-07T19:10:17.365Z,74.00
2023-08-07T19:12:46.612Z,75.17
2023-08-07T19:15:17.665Z,77.05
2023-08-07T19:17:46.749Z,75.67
2023-08-07T19:20:15.994Z,77.06
2023-08-07T19:22:45.348Z,77.16
2023-08-07T19:25:14.901Z,76.53
2023-08-07T19:27:44.153Z,76.78
2023-08-07T19:30:13.496Z,77.80
2023-08-07T19:32:44.567Z,75.42
2023-08-07T19:35:13.932Z,75.83
2023-08-07T19:37:43.366Z,74.97
2023-08-07T19:40:12.600Z,76.81
2023-08-07T19:42:41.678Z,75.99
2023-08-07T19:45:11.564Z,75.57
2023-08-07T19:47:41.569Z,75.27
2023-08-07T19:50:11.471Z,75.18
2023-08-07T19:52:40.823Z,75.27
2023-08-07T19:55:10.722Z,76.05
2023-08-07T19:57:40.290Z,76.51
2023-08-07T20:00:11.911Z,74.71
2023-08-07T20:02:42.048Z,75.73
2023-08-07T20:05:11.651Z,75.86
2023-08-07T20:07:41.141Z,74.47
2023-08-07T20:10:12.340Z,75.72
2023-08-07T20:12:43.582Z,74.10
2023-08-07T20:15:14.223Z,75.78
2023-08-07T20:17:46.901Z,76.04
2023-08-07T20:20:16.813Z,75.68
2023-08-07T20:22:46.070Z,75.90
2023-08-07T20:25:15.412Z,74.71
2023-08-07T20:27:45.105Z,75.25
2023-08-07T20:30:14.460Z,73.66
2023-08-07T20:32:43.402Z,74.24
2023-08-07T20:35:12.627Z,73.43
2023-08-07T20:37:41.942Z,73.62
2023-08-07T20:40:13.646Z,75.18
2023-08-07T20:42:43.056Z,77.47
2023-08-07T20:45:12.061Z,76.40
2023-08-07T20:47:41.070Z,78.04
2023-08-07T20:50:10.804Z,78.31
2023-08-07T20:52:39.780Z,79.83
2023-08-07T20:55:09.310Z,80.07
2023-08-07T20:57:38.359Z,81.50
2023-08-07T21:00:10.035Z,80.94
2023-08-07T21:02:39.594Z,80.83
2023-08-07T21:05:09.071Z,80.15
2023-08-07T21:07:38.328Z,79.92
2023-08-07T21:10:08.895Z,80.21
2023-08-07T21:12:37.932Z,80.66
2023-08-07T21:15:07.647Z,80.99
2023-08-07T21:17:37.353Z,82.14
2023-08-07T21:20:07.330Z,82.07
2023-08-07T21:22:36.798Z,81.35
2023-08-07T21:25:06.741Z,81.32
2023-08-07T21:27:37.077Z,79.76
2023-08-07T21:30:07.129Z,79.03
2023-08-07T21:32:36.142Z,81.19
2023-08-07T21:35:05.938Z,81.31
2023-08-07T21:37:34.962Z,80.19
2023-08-07T21:40:05.974Z,79.78
2023-08-07T21:42:35.079Z,79.30
2023-08-07T21:45:04.893Z,81.01
2023-08-07T21:47:34.144Z,78.41
2023-08-07T21:50:03.715Z,79.82
2023-08-07T21:52:32.699Z,78.44
2023-08-07T21:55:02.150Z,77.71
2023-08-07T21:57:32.142Z,77.65
2023-08-07T22:00:01.150Z,75.48
2023-08-07T22:02:30.227Z,75.66
2023-08-07T22:04:59.525Z,77.66
2023-08-07T22:07:28.953Z,75.89
2023-08-07T22:09:58.138Z,75.31
2023-08-07T22:12:27.128Z,75.03
2023-08-07T22:14:57.434Z,74.18
2023-08-07T22:17:26.534Z,74.16
2023-08-07T22:20:04.635Z,74.12
2023-08-07T22:22:35.117Z,73.26
2023-08-07T22:25:05.633Z,73.42
2023-08-07T22:27:34.691Z,72.77
2023-08-07T22:30:06.611Z,73.24
2023-08-07T22:32:37.146Z,74.33
2023-08-07T22:35:06.600Z,72.55
2023-08-07T22:37:35.816Z,73.50
2023-08-07T22:40:05.577Z,73.78
2023-08-07T22:42:34.576Z,72.82
2023-08-07T22:45:03.831Z,73.00
2023-08-07T22:47:32.885Z,75.52
2023-08-07T22:50:02.100Z,75.46
2023-08-07T22:52:31.172Z,75.18
2023-08-07T22:55:00.188Z,74.54
2023-08-07T22:57:29.631Z,72.59
2023-08-07T22:59:58.720Z,72.96
2023-08-07T23:02:27.846Z,72.10
2023-08-07T23:04:57.021Z,72.88
2023-08-07T23:07:26.418Z,73.55
2023-08-07T23:09:55.547Z,73.70
2023-08-07T23:12:24.775Z,73.03
2023-08-07T23:14:54.557Z,73.62
2023-08-07T23:17:23.723Z,74.57
2023-08-07T23:19:52.887Z,73.44
2023-08-07T23:22:22.198Z,72.95
2023-08-07T23:24:51.158Z,74.48
2023-08-07T23:27:20.223Z,74.00
2023-08-07T23:29:49.381Z,75.06
2023-08-07T23:32:18.398Z,72.97
2023-08-07T23:34:47.639Z,72.80
2023-08-07T23:37:16.644Z,74.45
2023-08-07T23:39:45.862Z,75.45
2023-08-07T23:42:15.013Z,74.50
2023-08-07T23:44:44.260Z,73.36
2023-08-07T23:47:13.637Z,74.69
2023-08-07T23:49:43.777Z,74.20
2023-08-07T23:52:13.154Z,73.46
2023-08-07T23:54:42.174Z,73.49
2023-08-07T23:57:11.513Z,73.78
2023-08-07T23:59:40.510Z,73.32
